Time;durP1;ratioP1;P1;durP2;ratioP2;P2;SDS_P1;SDS_P2;PMS_P1;PMS_P2;Temp;Humidity;BMP_temperature;BMP_pressure;BME280_temperature;BME280_humidity;BME280_pressure;Samples;Min_cycle;Max_cycle;Signal;HPM_P1;HPM_P2
2021/09/25 00:00:27;;;;;;;130.80;38.00;;;;;;;7.36;92.28;97461.56;117413;1175;70430;-70
2021/09/25 00:03:04;;;;;;;239.30;41.90;;;;;;;7.36;92.35;97467.45;117433;1175;68368;-73
2021/09/25 00:05:37;;;;;;;236.90;44.60;;;;;;;7.34;92.40;97471.48;117175;1175;68316;-71
2021/09/25 00:08:06;;;;;;;186.50;46.20;;;;;;;7.33;92.44;97473.55;117281;1177;59516;-74
2021/09/25 00:10:36;;;;;;;229.50;44.90;;;;;;;7.32;92.55;97474.66;117417;1175;59500;-71
2021/09/25 00:13:06;;;;;;;200.70;44.00;;;;;;;7.32;92.64;97472.70;117416;1176;70557;-73
2021/09/25 00:15:36;;;;;;;327.10;53.40;;;;;;;7.33;92.80;97478.66;117330;1175;69169;-72
2021/09/25 00:18:12;;;;;;;139.10;42.30;;;;;;;7.36;92.77;97482.56;117364;1174;69201;-69
2021/09/25 00:20:51;;;;;;;104.20;41.40;;;;;;;7.37;92.99;97487.11;117369;1177;59500;-70
2021/09/25 00:23:26;;;;;;;290.30;59.10;;;;;;;7.42;92.98;97493.11;117394;1175;59484;-72
2021/09/25 00:25:56;;;;;;;298.80;61.40;;;;;;;7.45;93.26;97495.02;117467;1175;71337;-72
2021/09/25 00:28:25;;;;;;;223.80;56.60;;;;;;;7.49;93.30;97500.21;117414;1175;68846;-71
2021/09/25 00:30:55;;;;;;;192.20;58.70;;;;;;;7.53;93.29;97500.07;117360;1175;69262;-73
2021/09/25 00:33:24;;;;;;;184.10;53.90;;;;;;;7.59;93.27;97504.56;117434;1175;59478;-71
2021/09/25 00:35:53;;;;;;;223.50;58.80;;;;;;;7.64;93.26;97508.66;117401;1176;59484;-73
2021/09/25 00:38:23;;;;;;;166.00;51.90;;;;;;;7.66;93.09;97511.36;117329;1176;70648;-72
2021/09/25 00:40:53;;;;;;;;;;;;;;;7.68;92.77;97512.83;117498;1175;68491;-72
2021/09/25 00:43:23;;;;;;;184.90;50.50;;;;;;;7.67;92.88;97520.16;117368;1175;68279;-73
2021/09/25 00:45:53;;;;;;;886.50;71.90;;;;;;;7.66;92.70;97517.51;117409;1175;59535;-70
2021/09/25 00:48:23;;;;;;;448.80;62.40;;;;;;;7.67;92.40;97521.98;117278;1176;59507;-73
2021/09/25 00:50:52;;;;;;;150.10;50.20;;;;;;;7.67;92.35;97528.73;117392;1177;70757;-72
2021/09/25 00:53:22;;;;;;;474.60;56.30;;;;;;;7.69;92.26;97527.22;117411;1177;68239;-73
2021/09/25 00:55:52;;;;;;;145.70;49.60;;;;;;;7.70;92.02;97530.50;117401;1177;69124;-73
2021/09/25 00:58:22;;;;;;;156.60;46.00;;;;;;;7.72;92.11;97531.98;117483;1176;59537;-73
2021/09/25 01:00:53;;;;;;;583.00;58.50;;;;;;;7.75;92.23;97534.48;117286;1174;59545;-71
2021/09/25 01:03:39;;;;;;;247.00;53.60;;;;;;;7.75;92.01;97536.27;117217;1177;70569;-70
2021/09/25 01:06:15;;;;;;;247.00;53.70;;;;;;;7.75;91.89;97533.36;117400;1175;68970;-73
2021/09/25 01:08:45;;;;;;;143.70;48.00;;;;;;;7.69;91.73;97532.42;117444;1175;69223;-73
2021/09/25 01:11:29;;;;;;;541.40;52.20;;;;;;;7.66;91.90;97538.54;117421;1176;59588;-73
2021/09/25 01:14:06;;;;;;;1128.20;62.40;;;;;;;7.64;91.96;97534.79;117200;1177;59533;-72
2021/09/25 01:16:38;;;;;;;;;;;;;;;7.62;92.10;97536.79;117142;1176;71349;-70
2021/09/25 01:19:08;;;;;;;852.30;60.40;;;;;;;7.57;92.00;97538.92;117355;1176;68329;-71
2021/09/25 01:21:38;;;;;;;627.30;51.00;;;;;;;7.53;92.03;97545.20;117110;1177;67531;-73
2021/09/25 01:24:08;;;;;;;121.00;37.60;;;;;;;7.48;92.31;97547.86;117261;1177;59609;-73
2021/09/25 01:26:37;;;;;;;196.20;40.10;;;;;;;7.48;92.64;97553.20;117383;1174;59517;-73
2021/09/25 01:29:06;;;;;;;581.50;53.30;;;;;;;7.48;92.60;97552.42;117426;1176;70389;-73
2021/09/25 01:31:36;;;;;;;114.30;35.00;;;;;;;7.48;92.64;97553.70;117086;1177;69346;-73
2021/09/25 01:34:06;;;;;;;248.90;34.90;;;;;;;7.48;92.73;97558.73;117451;1177;68285;-73
2021/09/25 01:36:36;;;;;;;288.80;40.60;;;;;;;7.48;92.71;97561.80;117411;1176;59506;-73
2021/09/25 01:39:06;;;;;;;271.50;39.60;;;;;;;7.48;92.76;97563.14;117421;1175;59525;-73
2021/09/25 01:41:35;;;;;;;834.80;60.30;;;;;;;7.48;92.74;97569.74;117401;1177;70402;-73
2021/09/25 01:44:05;;;;;;;279.40;43.30;;;;;;;7.47;92.63;97570.48;117176;1177;68464;-73
2021/09/25 01:46:34;;;;;;;412.50;50.40;;;;;;;7.49;92.53;97574.61;117097;1176;69221;-73
2021/09/25 01:49:05;;;;;;;264.20;42.60;;;;;;;7.42;92.31;97573.93;117381;1177;59555;-72
2021/09/25 01:51:36;;;;;;;246.20;41.90;;;;;;;7.35;92.26;97578.38;117386;1176;59532;-70
2021/09/25 01:54:08;;;;;;;465.40;45.00;;;;;;;7.30;92.53;97579.05;117347;1177;71187;-69
2021/09/25 01:56:50;;;;;;;362.20;41.70;;;;;;;7.31;92.46;97580.30;117196;1177;68903;-70
2021/09/25 01:59:26;;;;;;;246.60;39.90;;;;;;;7.34;92.53;97580.90;117075;1177;69311;-70
2021/09/25 02:01:56;;;;;;;113.80;37.50;;;;;;;7.35;92.61;97582.52;117281;1176;59537;-73
2021/09/25 02:04:26;;;;;;;494.50;49.20;;;;;;;7.36;92.68;97583.23;117343;1176;59532;-71
2021/09/25 02:06:57;;;;;;;532.40;45.70;;;;;;;7.38;92.70;97587.23;117422;1176;71170;-74
2021/09/25 02:09:26;;;;;;;514.00;44.90;;;;;;;7.38;92.57;97590.86;117381;1176;68438;-73
2021/09/25 02:11:56;;;;;;;484.10;42.60;;;;;;;7.38;92.48;97596.59;117246;1176;68996;-72
2021/09/25 02:14:26;;;;;;;458.70;42.70;;;;;;;7.37;92.31;97600.63;117390;1176;59477;-71
2021/09/25 02:16:55;;;;;;;468.80;41.10;;;;;;;7.37;92.35;97603.38;117442;1174;59529;-74
2021/09/25 02:19:25;;;;;;;179.60;31.90;;;;;;;7.38;92.22;97606.05;117452;1176;71482;-72
2021/09/25 02:21:55;;;;;;;283.50;30.20;;;;;;;7.31;92.28;97609.27;117453;1176;67994;-73
2021/09/25 02:24:30;;;;;;;530.40;36.00;;;;;;;7.29;92.31;97610.88;117279;1177;68505;-70
2021/09/25 02:27:11;;;;;;;493.90;38.80;;;;;;;7.29;92.50;97619.45;117362;1175;59573;-70
2021/09/25 02:29:41;;;;;;;312.20;40.00;;;;;;;7.30;92.29;97621.16;117422;1177;59481;-73
2021/09/25 02:32:11;;;;;;;141.60;33.00;;;;;;;7.31;92.42;97621.55;117500;1175;71141;-72
2021/09/25 02:34:41;;;;;;;289.40;39.70;;;;;;;7.34;92.48;97624.27;117141;1177;68448;-71
2021/09/25 02:37:10;;;;;;;321.50;37.30;;;;;;;7.36;92.46;97627.16;117453;1175;69055;-70
2021/09/25 02:39:40;;;;;;;779.40;45.50;;;;;;;7.35;92.44;97629.29;117203;1177;59507;-73
2021/09/25 02:42:10;;;;;;;324.70;30.80;;;;;;;7.32;92.19;97635.86;117263;1175;59608;-73
2021/09/25 02:44:39;;;;;;;786.50;44.10;;;;;;;7.25;92.14;97635.55;117420;1177;71284;-73
2021/09/25 02:47:08;;;;;;;430.60;30.40;;;;;;;7.19;92.02;97641.16;117449;1175;69200;-70
2021/09/25 02:49:37;;;;;;;617.30;40.90;;;;;;;7.11;91.99;97641.48;117420;1176;69224;-72
2021/09/25 02:52:08;;;;;;;622.00;39.00;;;;;;;7.11;92.25;97645.66;117377;1176;59465;-74
2021/09/25 02:54:37;;;;;;;619.50;39.50;;;;;;;7.08;92.08;97651.20;117447;1177;59494;-71
2021/09/25 02:57:07;;;;;;;702.90;43.60;;;;;;;7.04;92.05;97649.28;117348;1176;71236;-71
2021/09/25 02:59:36;;;;;;;390.90;33.70;;;;;;;6.99;92.14;97649.88;117471;1175;68993;-70
2021/09/25 03:02:06;;;;;;;538.80;38.10;;;;;;;6.97;91.91;97657.21;117373;1175;68691;-74
2021/09/25 03:04:43;;;;;;;606.20;40.10;;;;;;;6.96;92.03;97659.34;117268;1175;59513;-72
2021/09/25 03:07:28;;;;;;;200.40;33.60;;;;;;;6.95;91.89;97661.72;117042;1176;59510;-70
2021/09/25 03:10:01;;;;;;;380.30;36.20;;;;;;;6.96;92.03;97659.27;117341;1175;71373;-68
2021/09/25 03:12:31;;;;;;;332.30;38.50;;;;;;;6.99;92.04;97660.17;117368;1175;68443;-70
2021/09/25 03:15:04;;;;;;;397.00;37.40;;;;;;;7.02;92.12;97660.48;117468;1176;68447;-72
2021/09/25 03:17:34;;;;;;;203.80;35.00;;;;;;;7.03;92.09;97664.02;117354;1171;59529;-70
2021/09/25 03:20:05;;;;;;;151.80;32.30;;;;;;;7.04;91.92;97666.67;117443;1175;59489;-71
2021/09/25 03:22:35;;;;;;;108.90;31.30;;;;;;;7.02;91.95;97668.11;117446;1176;70762;-71
2021/09/25 03:25:09;;;;;;;80.50;29.30;;;;;;;7.03;91.81;97668.35;117199;1177;69014;-71
2021/09/25 03:27:39;;;;;;;157.70;30.40;;;;;;;7.03;91.99;97671.48;117462;1175;68250;-69
2021/09/25 03:30:10;;;;;;;157.90;31.00;;;;;;;7.03;91.97;97675.90;117456;1175;59528;-74
2021/09/25 03:32:40;;;;;;;100.60;28.10;;;;;;;6.98;91.89;97675.85;117461;1177;59510;-69
2021/09/25 03:35:10;;;;;;;100.00;27.90;;;;;;;6.96;91.72;97681.46;117454;1177;70502;-69
2021/09/25 03:37:40;;;;;;;90.50;27.60;;;;;;;6.96;91.84;97685.23;117517;1175;69231;-70
2021/09/25 03:40:11;;;;;;;126.70;29.70;;;;;;;6.96;92.03;97686.88;117443;1175;69237;-70
2021/09/25 03:42:40;;;;;;;146.60;31.20;;;;;;;6.98;92.02;97689.53;117416;1175;59536;-69
2021/09/25 03:45:10;;;;;;;90.90;27.40;;;;;;;6.99;92.09;97691.58;117459;1176;59510;-72
2021/09/25 03:47:40;;;;;;;100.50;30.90;;;;;;;7.00;91.92;97696.13;117312;1175;70617;-69
2021/09/25 03:50:21;;;;;;;121.70;32.30;;;;;;;7.02;91.91;97697.30;117107;1177;69203;-69
2021/09/25 03:53:04;;;;;;;169.50;29.70;;;;;;;7.03;92.09;97698.86;117388;1177;68398;-69
2021/09/25 03:55:33;;;;;;;313.50;34.50;;;;;;;7.04;92.44;97696.98;117409;1177;59484;-73
2021/09/25 03:58:03;;;;;;;190.30;31.00;;;;;;;7.05;92.14;97696.56;117435;1176;59513;-72
2021/09/25 04:00:32;;;;;;;286.50;31.20;;;;;;;7.04;92.00;97696.50;117418;1177;70529;-73
2021/09/25 04:03:02;;;;;;;200.70;33.90;;;;;;;6.95;91.80;97700.58;117379;1175;67519;-73
2021/09/25 04:05:31;;;;;;;189.20;34.90;;;;;;;6.97;91.83;97700.88;117408;1175;68273;-73
2021/09/25 04:08:00;;;;;;;261.70;31.70;;;;;;;6.98;91.94;97707.39;117431;1175;59506;-74
2021/09/25 04:10:30;;;;;;;186.10;30.80;;;;;;;6.94;91.60;97708.21;117348;1175;59491;-72
2021/09/25 04:12:59;;;;;;;262.50;33.10;;;;;;;6.91;91.41;97707.55;117388;1176;70580;-73
2021/09/25 04:15:29;;;;;;;191.40;32.60;;;;;;;6.90;91.38;97713.08;117312;1175;69159;-70
2021/09/25 04:17:58;;;;;;;198.90;35.50;;;;;;;6.88;91.34;97715.22;117285;1176;67499;-73
2021/09/25 04:20:27;;;;;;;312.00;38.00;;;;;;;6.90;91.68;97714.80;117372;1175;59529;-72
2021/09/25 04:22:58;;;;;;;155.70;34.00;;;;;;;6.92;91.53;97714.93;117386;1176;59474;-74
2021/09/25 04:25:30;;;;;;;226.70;34.40;;;;;;;6.90;91.35;97725.80;117368;1177;70402;-70
2021/09/25 04:28:07;;;;;;;107.90;32.70;;;;;;;6.89;91.21;97728.10;117183;1177;69208;-70
2021/09/25 04:30:39;;;;;;;80.20;31.00;;;;;;;6.90;91.57;97732.65;117407;1175;69215;-73
2021/09/25 04:33:10;;;;;;;159.70;36.50;;;;;;;6.94;92.20;97736.07;117378;1175;59615;-70
2021/09/25 04:35:39;;;;;;;205.20;38.80;;;;;;;6.96;92.35;97740.45;117436;1177;59529;-73
2021/09/25 04:38:09;;;;;;;234.20;36.40;;;;;;;6.99;92.05;97742.47;117388;1176;71160;-73
2021/09/25 04:40:38;;;;;;;110.00;35.30;;;;;;;6.99;91.84;97740.42;117392;1175;68272;-72
2021/09/25 04:43:07;;;;;;;118.30;38.10;;;;;;;7.03;91.84;97739.31;117442;1177;69023;-70
2021/09/25 04:45:36;;;;;;;171.80;38.50;;;;;;;7.06;92.15;97744.92;117436;1177;59501;-73
2021/09/25 04:48:06;;;;;;;77.40;35.70;;;;;;;7.08;91.94;97754.42;117330;1176;59517;-72
2021/09/25 04:50:35;;;;;;;110.80;35.00;;;;;;;7.09;91.63;97760.31;117484;1176;70371;-72
2021/09/25 04:53:13;;;;;;;142.40;34.60;;;;;;;7.12;91.79;97768.70;117466;1176;69006;-73
2021/09/25 04:55:43;;;;;;;136.50;33.60;;;;;;;7.16;91.59;97770.71;117447;1175;68469;-72
2021/09/25 04:58:13;;;;;;;85.80;31.50;;;;;;;7.16;91.33;97772.27;117327;1177;59545;-71
2021/09/25 05:00:42;;;;;;;127.90;33.40;;;;;;;7.15;91.16;97772.45;117492;1176;59514;-72
2021/09/25 05:03:11;;;;;;;132.70;33.10;;;;;;;7.14;91.12;97775.91;117451;1177;70646;-70
2021/09/25 05:05:41;;;;;;;118.70;32.80;;;;;;;7.15;91.10;97777.72;117417;1177;69061;-74
2021/09/25 05:08:10;;;;;;;88.00;31.50;;;;;;;7.17;91.00;97781.46;117393;1175;69187;-70
2021/09/25 05:10:39;;;;;;;105.80;32.90;;;;;;;7.18;91.09;97787.52;117403;1176;59603;-72
2021/09/25 05:13:08;;;;;;;143.40;30.90;;;;;;;7.20;91.13;97790.90;117336;1177;59510;-71
2021/09/25 05:15:37;;;;;;;126.60;34.70;;;;;;;7.17;90.87;97793.59;117369;1175;70699;-73
2021/09/25 05:18:06;;;;;;;130.70;35.40;;;;;;;7.18;90.97;97795.23;117436;1177;69236;-70
2021/09/25 05:20:35;;;;;;;84.50;34.50;;;;;;;7.19;91.00;97799.81;117417;1175;68772;-72
2021/09/25 05:23:04;;;;;;;111.40;33.70;;;;;;;7.21;90.93;97800.73;117419;1176;59534;-72
2021/09/25 05:25:33;;;;;;;73.60;32.60;;;;;;;7.20;91.01;97803.96;117333;1175;59459;-73
2021/09/25 05:28:03;;;;;;;74.80;35.70;;;;;;;7.17;90.97;97802.09;117397;1177;71185;-73
2021/09/25 05:30:32;;;;;;;64.80;36.00;;;;;;;7.20;91.17;97805.15;117405;1177;68553;-72
2021/09/25 05:33:01;;;;;;;70.10;36.20;;;;;;;7.22;90.95;97808.66;117407;1177;68291;-71
2021/09/25 05:35:30;;;;;;;46.80;30.40;;;;;;;7.29;91.09;97808.03;117367;1175;59532;-70
2021/09/25 05:37:59;;;;;;;47.00;32.20;;;;;;;7.33;91.04;97808.06;117308;1176;59605;-73
2021/09/25 05:40:29;;;;;;;44.70;30.10;;;;;;;7.39;90.96;97812.81;117440;1175;71465;-70
2021/09/25 05:43:04;;;;;;;43.20;30.30;;;;;;;7.42;90.91;97812.31;117478;1175;68732;-73
2021/09/25 05:45:36;;;;;;;45.70;31.10;;;;;;;7.50;90.84;97812.14;117394;1175;69221;-71
2021/09/25 05:48:12;;;;;;;38.00;28.20;;;;;;;7.62;90.89;97809.41;117451;1176;59540;-71
2021/09/25 05:50:45;;;;;;;33.90;26.10;;;;;;;7.69;90.67;97809.08;117458;1175;59537;-72
2021/09/25 05:53:14;;;;;;;32.30;25.00;;;;;;;7.72;90.48;97809.69;117487;1175;71631;-72
2021/09/25 05:55:43;;;;;;;38.90;29.00;;;;;;;7.78;90.02;97810.80;117432;1176;69312;-72
2021/09/25 05:58:11;;;;;;;37.40;27.80;;;;;;;7.96;89.96;97804.42;117457;1176;69335;-70
2021/09/25 06:00:40;;;;;;;31.20;23.90;;;;;;;8.14;89.95;97808.36;117441;1177;59487;-71
2021/09/25 06:03:10;;;;;;;30.50;24.40;;;;;;;8.32;89.22;97802.60;117391;1175;59537;-71
2021/09/25 06:05:39;;;;;;;28.30;20.90;;;;;;;8.49;88.26;97808.35;117432;1175;70620;-72
2021/09/25 06:08:09;;;;;;;30.00;22.40;;;;;;;8.66;88.27;97808.73;117474;1175;69381;-73
2021/09/25 06:10:39;;;;;;;26.50;21.30;;;;;;;8.80;87.95;97815.46;117395;1176;69298;-71
2021/09/25 06:13:10;;;;;;;26.30;19.80;;;;;;;8.91;86.08;97810.08;117417;1177;59490;-72
2021/09/25 06:15:39;;;;;;;24.90;19.00;;;;;;;9.09;86.60;97814.89;117382;1177;59596;-73
2021/09/25 06:18:08;;;;;;;25.80;19.80;;;;;;;9.20;86.22;97819.30;117572;1175;70592;-73
2021/09/25 06:20:37;;;;;;;26.80;18.80;;;;;;;9.28;86.02;97825.67;117359;1176;68566;-71
2021/09/25 06:23:07;;;;;;;24.80;19.30;;;;;;;9.36;85.31;97832.17;117393;1176;68458;-73
2021/09/25 06:25:36;;;;;;;24.70;18.20;;;;;;;9.48;83.97;97835.98;117397;1172;59456;-70
2021/09/25 06:28:05;;;;;;;25.70;17.80;;;;;;;9.74;83.58;97835.73;117174;1176;59537;-71
2021/09/25 06:30:40;;;;;;;21.90;16.10;;;;;;;9.96;82.38;97835.59;117398;1176;70530;-72
2021/09/25 06:33:11;;;;;;;19.80;15.80;;;;;;;10.11;82.87;97839.35;117255;1176;69179;-72
2021/09/25 06:35:40;;;;;;;20.20;16.20;;;;;;;10.18;80.35;97841.79;117471;1175;69200;-72
2021/09/25 06:38:09;;;;;;;21.70;16.80;;;;;;;10.31;80.20;97847.79;117392;1176;60129;-72
2021/09/25 06:40:38;;;;;;;23.40;15.90;;;;;;;10.46;78.91;97858.14;117451;1175;59523;-72
2021/09/25 06:43:07;;;;;;;22.10;16.60;;;;;;;10.96;78.67;97858.48;117400;1177;71368;-73
2021/09/25 06:45:38;;;;;;;21.70;15.00;;;;;;;11.52;78.31;97858.59;117370;1177;69094;-72
2021/09/25 06:48:08;;;;;;;19.50;14.50;;;;;;;11.92;73.97;97856.19;117221;1177;68753;-71
2021/09/25 06:50:37;;;;;;;19.10;12.00;;;;;;;12.61;73.56;97861.16;117444;1175;59567;-71
2021/09/25 06:53:06;;;;;;;18.50;13.80;;;;;;;13.15;69.10;97864.88;117348;1175;59874;-73
2021/09/25 06:55:35;;;;;;;17.80;13.60;;;;;;;13.60;72.74;97857.75;117262;1175;70615;-73
2021/09/25 06:58:05;;;;;;;18.70;14.20;;;;;;;13.79;71.38;97865.58;117384;1175;68461;-69
2021/09/25 07:00:34;;;;;;;18.50;12.70;;;;;;;13.81;68.00;97864.88;117344;1177;69355;-72
2021/09/25 07:03:03;;;;;;;15.60;12.60;;;;;;;13.63;66.40;97873.70;117016;1177;59488;-71
2021/09/25 07:05:32;;;;;;;16.50;11.70;;;;;;;14.07;65.54;97877.71;117421;1174;59529;-73
2021/09/25 07:08:02;;;;;;;18.40;13.10;;;;;;;14.64;66.78;97881.55;117455;1176;71382;-73
2021/09/25 07:10:31;;;;;;;17.90;13.20;;;;;;;15.22;65.96;97880.80;117263;1175;69226;-72
2021/09/25 07:13:00;;;;;;;15.00;12.50;;;;;;;15.49;63.05;97880.66;117400;1176;68531;-73
2021/09/25 07:15:29;;;;;;;19.50;13.50;;;;;;;15.57;62.90;97881.02;117398;1176;59500;-73
2021/09/25 07:17:59;;;;;;;16.60;12.30;;;;;;;16.00;61.54;97882.73;117354;1176;59536;-72
2021/09/25 07:20:32;;;;;;;17.50;12.10;;;;;;;16.26;61.73;97880.64;117400;1175;71290;-73
2021/09/25 07:23:02;;;;;;;16.20;12.90;;;;;;;16.69;59.66;97883.50;117413;1176;68516;-74
2021/09/25 07:25:31;;;;;;;14.80;12.30;;;;;;;16.92;59.90;97884.02;117385;1177;68446;-73
2021/09/25 07:28:00;;;;;;;14.70;12.20;;;;;;;17.28;58.11;97884.46;117081;1176;60484;-70
2021/09/25 07:30:31;;;;;;;14.90;12.10;;;;;;;17.35;56.72;97885.21;117353;1176;59513;-72
2021/09/25 07:33:00;;;;;;;15.00;10.70;;;;;;;17.71;55.53;97889.54;117487;1176;71406;-71
2021/09/25 07:35:30;;;;;;;17.40;11.30;;;;;;;17.54;55.40;97892.88;117371;1176;69356;-72
2021/09/25 07:38:00;;;;;;;15.30;11.70;;;;;;;17.95;55.41;97891.34;117391;1177;68271;-72
2021/09/25 07:40:29;;;;;;;14.10;9.70;;;;;;;18.22;52.95;97896.31;117149;1177;59881;-73
2021/09/25 07:42:59;;;;;;;14.00;9.30;;;;;;;18.22;54.55;97896.37;117292;1177;59507;-73
2021/09/25 07:45:29;;;;;;;11.50;9.50;;;;;;;18.52;54.16;97896.66;117136;1176;70419;-72
2021/09/25 07:47:58;;;;;;;14.80;8.90;;;;;;;19.18;52.44;97891.80;117372;1176;68493;-72
2021/09/25 07:50:28;;;;;;;11.90;8.50;;;;;;;19.54;50.61;97893.31;117392;1175;68496;-72
2021/09/25 07:52:57;;;;;;;13.20;8.70;;;;;;;19.38;49.26;97891.03;117398;1177;60449;-72
2021/09/25 07:55:26;;;;;;;14.80;9.30;;;;;;;19.44;49.55;97895.92;117397;1175;59526;-72
2021/09/25 07:57:58;;;;;;;12.50;8.50;;;;;;;19.63;49.08;97895.69;117348;1177;70464;-72
2021/09/25 08:00:28;;;;;;;11.90;8.30;;;;;;;20.14;48.73;97898.83;117331;1175;69064;-72
2021/09/25 08:03:01;;;;;;;13.90;9.40;;;;;;;20.45;47.54;97900.67;117438;1175;69252;-73
2021/09/25 08:05:31;;;;;;;14.40;9.90;;;;;;;20.59;46.97;97903.73;117040;1177;59552;-73
2021/09/25 08:07:59;;;;;;;12.80;9.60;;;;;;;20.39;46.81;97903.30;117407;1175;59505;-71
2021/09/25 08:10:32;;;;;;;12.00;8.80;;;;;;;20.45;46.44;97903.23;117419;1177;72587;-70
2021/09/25 08:13:03;;;;;;;13.10;9.80;;;;;;;20.74;46.51;97904.58;117407;1176;69317;-70
2021/09/25 08:15:52;;;;;;;12.60;8.90;;;;;;;20.73;46.57;97911.27;117322;1177;68254;-71
2021/09/25 08:18:21;;;;;;;11.50;9.30;;;;;;;20.97;46.09;97909.95;117257;1177;59584;-73
2021/09/25 08:20:51;;;;;;;18.90;9.40;;;;;;;21.69;45.37;97909.70;117415;1175;59485;-73
2021/09/25 08:23:20;;;;;;;13.80;8.90;;;;;;;22.38;43.86;97914.13;117392;1175;70864;-73
2021/09/25 08:26:34;;;;;;;12.00;9.10;;;;;;;22.39;41.60;97914.02;114793;1190;596938;-72
2021/09/25 08:29:04;;;;;;;13.90;9.40;;;;;;;22.48;40.93;97914.45;116436;1183;57826;-73
2021/09/25 08:31:33;;;;;;;;;;;;;;;22.15;41.97;97920.64;116436;1183;57465;-73
2021/09/25 08:34:02;;;;;;;10.20;8.00;;;;;;;22.18;41.57;97921.49;116457;1183;68981;-73
2021/09/25 08:36:31;;;;;;;12.30;8.30;;;;;;;21.99;41.32;97922.48;116374;1184;68613;-71
2021/09/25 08:39:08;;;;;;;8.90;6.50;;;;;;;22.63;41.30;97918.59;116502;1183;68358;-70
2021/09/25 08:41:41;;;;;;;13.10;7.50;;;;;;;22.93;40.41;97919.32;116407;1183;57463;-73
2021/09/25 08:44:10;;;;;;;11.10;7.80;;;;;;;22.82;39.89;97916.31;116437;1183;57546;-73
2021/09/25 08:46:40;;;;;;;10.80;7.60;;;;;;;22.54;39.83;97919.73;116466;1183;68240;-71
2021/09/25 08:49:09;;;;;;;10.80;6.90;;;;;;;22.59;39.48;97915.50;116473;1183;68295;-71
2021/09/25 08:51:38;;;;;;;11.20;5.90;;;;;;;22.82;39.40;97913.60;116502;1183;68630;-72
2021/09/25 08:54:07;;;;;;;10.60;6.10;;;;;;;22.41;40.75;97919.09;116465;1183;57945;-71
2021/09/25 08:56:37;;;;;;;11.20;6.30;;;;;;;22.61;40.03;97919.92;116446;1183;57919;-73
2021/09/25 08:59:06;;;;;;;11.10;7.40;;;;;;;22.89;38.95;97920.76;116470;1183;69545;-73
2021/09/25 09:01:43;;;;;;;11.40;7.10;;;;;;;23.16;38.56;97920.86;116474;1183;69178;-71
2021/09/25 09:04:12;;;;;;;12.00;7.00;;;;;;;23.37;39.78;97917.51;116484;1183;68372;-73
2021/09/25 09:06:47;;;;;;;13.90;7.30;;;;;;;23.19;39.41;97916.09;116447;1176;57922;-73
2021/09/25 09:09:16;;;;;;;11.20;6.20;;;;;;;23.46;38.45;97919.66;116554;1183;57835;-71
2021/09/25 09:11:49;;;;;;;13.10;6.80;;;;;;;24.03;38.07;97920.14;116484;1183;68992;-72
2021/09/25 09:14:18;;;;;;;13.30;7.10;;;;;;;23.76;36.29;97915.86;116529;1183;68512;-72
2021/09/25 09:16:57;;;;;;;10.40;6.40;;;;;;;23.77;37.22;97915.45;116513;1184;68891;-72
2021/09/25 09:19:36;;;;;;;10.90;7.00;;;;;;;23.31;37.83;97919.73;116504;1184;58354;-72
2021/09/25 09:22:06;;;;;;;8.50;5.40;;;;;;;24.25;36.77;97916.73;116479;1184;57881;-73
2021/09/25 09:24:47;;;;;;;10.60;6.60;;;;;;;24.08;38.02;97914.02;116485;1184;68316;-73
2021/09/25 09:27:19;;;;;;;10.60;6.10;;;;;;;24.67;37.27;97908.33;116540;1183;67599;-72
2021/09/25 09:29:48;;;;;;;9.90;5.80;;;;;;;25.35;36.20;97907.79;116485;1184;69248;-71
2021/09/25 09:32:17;;;;;;;10.40;6.20;;;;;;;25.70;33.89;97903.86;116443;1182;58332;-71
2021/09/25 09:34:47;;;;;;;8.90;5.90;;;;;;;25.01;35.04;97904.30;116416;1184;57974;-71
2021/09/25 09:37:19;;;;;;;11.20;6.70;;;;;;;25.27;34.94;97903.01;116871;1179;69004;-74
2021/09/25 09:40:00;;;;;;;12.50;6.10;;;;;;;26.05;33.18;97902.59;116903;1180;68495;-74
2021/09/25 09:42:41;;;;;;;10.30;6.10;;;;;;;26.00;34.64;97904.83;116876;1179;68389;-72
2021/09/25 09:45:12;;;;;;;9.50;5.70;;;;;;;25.93;34.08;97903.77;116852;1181;57917;-74
2021/09/25 09:47:45;;;;;;;10.10;5.80;;;;;;;26.23;33.67;97903.98;116905;1180;58353;-71
2021/09/25 09:50:15;;;;;;;10.30;5.80;;;;;;;26.12;33.01;97903.71;116933;1179;69042;-74
2021/09/25 09:52:44;;;;;;;9.50;5.40;;;;;;;26.39;31.46;97903.98;117000;1179;69339;-74
2021/09/25 09:55:24;;;;;;;9.50;5.10;;;;;;;25.88;33.68;97898.45;116950;1179;69100;-73
2021/09/25 09:58:05;;;;;;;11.90;5.20;;;;;;;26.25;33.55;97899.01;116950;1178;57911;-71
2021/09/25 10:00:36;;;;;;;8.20;4.70;;;;;;;26.83;32.87;97894.83;116861;1170;57919;-71
2021/09/25 10:03:07;;;;;;;8.60;5.20;;;;;;;26.69;33.17;97895.59;116843;1180;69088;-74
2021/09/25 10:05:39;;;;;;;9.20;4.80;;;;;;;27.55;31.61;97896.95;116839;1180;69232;-74
2021/09/25 10:08:08;;;;;;;11.30;5.00;;;;;;;27.33;30.07;97891.39;116799;1180;69322;-73
2021/09/25 10:10:39;;;;;;;10.90;5.20;;;;;;;27.75;29.75;97886.83;116859;1180;57935;-74
2021/09/25 10:13:08;;;;;;;9.70;5.00;;;;;;;27.23;29.34;97890.45;116939;1180;57942;-74
2021/09/25 10:15:39;;;;;;;8.90;4.90;;;;;;;26.41;30.34;97888.45;116888;1180;68049;-73
2021/09/25 10:18:08;;;;;;;7.90;4.00;;;;;;;25.72;30.28;97887.35;116870;1179;69139;-73
2021/09/25 10:20:39;;;;;;;9.20;4.80;;;;;;;24.81;32.37;97887.83;116835;1180;69335;-72
2021/09/25 10:23:08;;;;;;;6.50;4.00;;;;;;;24.65;32.90;97885.42;116845;1180;57945;-74
2021/09/25 10:25:37;;;;;;;7.20;4.40;;;;;;;24.75;31.90;97883.43;116869;1180;58206;-73
2021/09/25 10:28:30;;;;;;;6.90;3.90;;;;;;;23.34;33.74;97888.96;116830;1180;69869;-73
2021/09/25 10:30:59;;;;;;;10.10;4.60;;;;;;;23.45;33.80;97886.75;116670;1180;69110;-74
2021/09/25 10:33:28;;;;;;;7.80;4.40;;;;;;;23.57;33.68;97887.42;116874;1179;69272;-73
2021/09/25 10:35:57;;;;;;;7.70;5.00;;;;;;;23.63;33.77;97886.37;116826;1179;57877;-74
2021/09/25 10:38:38;;;;;;;9.30;4.50;;;;;;;23.48;34.10;97880.40;116797;1179;57885;-73
2021/09/25 10:41:42;;;;;;;7.20;3.90;;;;;;;23.45;34.47;97879.59;116784;1179;68984;-72
2021/09/25 10:44:52;;;;;;;9.60;4.50;;;;;;;23.84;34.62;97877.03;116864;1180;69063;-73
2021/09/25 10:47:32;;;;;;;8.60;5.00;;;;;;;24.09;34.36;97877.45;116177;1184;68803;-73
2021/09/25 10:50:09;;;;;;;9.00;4.60;;;;;;;25.11;33.95;97873.32;116202;1184;57975;-73
2021/09/25 10:52:49;;;;;;;8.00;4.60;;;;;;;26.20;31.88;97880.12;116221;1184;58041;-74
2021/09/25 10:55:38;;;;;;;8.10;5.10;;;;;;;26.97;30.86;97880.61;116167;1184;69998;-73
2021/09/25 10:58:25;;;;;;;11.40;5.60;;;;;;;27.51;29.54;97881.40;116261;1183;69012;-73
2021/09/25 11:01:02;;;;;;;8.20;5.40;;;;;;;27.96;27.83;97874.61;116155;1184;68543;-74
2021/09/25 11:03:45;;;;;;;10.20;6.50;;;;;;;26.01;29.79;97878.42;116260;1184;57937;-74
2021/09/25 11:06:40;;;;;;;8.60;5.70;;;;;;;25.75;31.82;97875.54;116215;1184;57952;-73
2021/09/25 11:09:26;;;;;;;12.50;5.90;;;;;;;26.21;31.36;97872.05;116235;1184;69561;-74
2021/09/25 11:12:15;;;;;;;10.30;5.20;;;;;;;26.59;31.46;97875.33;116169;1184;69172;-74
2021/09/25 11:14:53;;;;;;;7.80;5.10;;;;;;;27.08;30.47;97876.67;116235;1184;68450;-73
2021/09/25 11:17:28;;;;;;;9.10;4.70;;;;;;;27.02;30.09;97880.36;116406;1183;57942;-73
2021/09/25 11:20:02;;;;;;;9.50;5.60;;;;;;;26.87;29.60;97879.59;116433;1183;57916;-73
2021/09/25 11:22:37;;;;;;;8.40;5.80;;;;;;;26.39;29.73;97878.70;116416;1181;69559;-73
2021/09/25 11:25:17;;;;;;;7.70;5.00;;;;;;;25.46;31.80;97877.14;116932;1180;69039;-74
2021/09/25 11:27:48;;;;;;;10.70;5.60;;;;;;;25.01;31.95;97878.11;116856;1180;67582;-72
2021/09/25 11:30:19;;;;;;;9.20;4.90;;;;;;;24.99;32.57;97877.92;116847;1179;57938;-73
2021/09/25 11:33:09;;;;;;;9.20;5.40;;;;;;;25.07;32.97;97880.39;116931;1178;57884;-72
2021/09/25 11:35:38;;;;;;;41.60;30.10;;;;;;;25.07;32.70;97877.45;116871;1181;69775;-73